Time;durP1;ratioP1;P1;durP2;ratioP2;P2;SDS_P1;SDS_P2;PMS_P1;PMS_P2;Temp;Humidity;BMP_temperature;BMP_pressure;BME280_temperature;BME280_humidity;BME280_pressure;Samples;Min_cycle;Max_cycle;Signal;HPM_P1;HPM_P2
2022/12/10 00:01:39;;;;;;;19.52;11.43;;;;;;;;;;4903557;29;20075;-87
2022/12/10 00:04:05;;;;;;;18.05;11.10;;;;;;;;;;4873266;29;20040;-83
2022/12/10 00:06:33;;;;;;;18.77;10.48;;;;;;;;;;4869637;29;20021;-86
2022/12/10 00:09:00;;;;;;;19.23;11.00;;;;;;;;;;4901507;29;20036;-86
2022/12/10 00:11:26;;;;;;;18.40;11.32;;;;;;;;;;4901590;29;20091;-85
2022/12/10 00:13:52;;;;;;;17.67;10.63;;;;;;;;;;4882407;29;20123;-84
2022/12/10 00:16:19;;;;;;;17.52;11.05;;;;;;;;;;4881000;29;20123;-86
2022/12/10 00:18:46;;;;;;;18.02;11.13;;;;;;;;;;4909202;29;20037;-86
2022/12/10 00:21:17;;;;;;;16.65;10.38;;;;;;;;;;4902315;29;20044;-86
2022/12/10 00:23:43;;;;;;;18.38;10.45;;;;;;;;;;4900658;29;20040;-86
2022/12/10 00:26:14;;;;;;;18.90;11.73;;;;;;;;;;4884845;29;20067;-85
2022/12/10 00:28:41;;;;;;;18.23;11.05;;;;;;;;;;4902327;29;20108;-87
2022/12/10 00:31:10;;;;;;;21.13;11.32;;;;;;;;;;4868121;29;20036;-87
2022/12/10 00:33:36;;;;;;;18.80;11.25;;;;;;;;;;4884777;29;20112;-86
2022/12/10 00:36:08;;;;;;;21.83;12.60;;;;;;;;;;4884494;29;20072;-87
2022/12/10 00:38:33;;;;;;;18.73;10.93;;;;;;;;;;4900941;29;20131;-86
2022/12/10 00:40:59;;;;;;;20.00;11.75;;;;;;;;;;4883610;29;20071;-86
2022/12/10 00:43:25;;;;;;;21.35;12.27;;;;;;;;;;4901116;29;20036;-85
2022/12/10 00:45:50;;;;;;;19.95;11.07;;;;;;;;;;4883185;29;20032;-85
2022/12/10 00:48:17;;;;;;;20.35;11.77;;;;;;;;;;4901177;29;20067;-86
2022/12/10 00:50:42;;;;;;;20.08;11.77;;;;;;;;;;4900869;29;20036;-85
2022/12/10 00:53:08;;;;;;;21.05;12.07;;;;;;;;;;4868764;29;20046;-86
2022/12/10 00:55:33;;;;;;;20.05;11.60;;;;;;;;;;4902312;29;20048;-85
2022/12/10 00:57:59;;;;;;;18.60;11.15;;;;;;;;;;4902220;29;20047;-84
2022/12/10 01:00:24;;;;;;;19.65;11.43;;;;;;;;;;4885280;29;20524;-85
2022/12/10 01:02:50;;;;;;;19.52;11.10;;;;;;;;;;4886037;29;20044;-86
2022/12/10 01:05:16;;;;;;;18.48;11.40;;;;;;;;;;4886077;29;20166;-85
2022/12/10 01:07:42;;;;;;;19.05;11.30;;;;;;;;;;4887141;29;20509;-85
2022/12/10 01:10:10;;;;;;;21.55;12.10;;;;;;;;;;4885653;29;20116;-85
2022/12/10 01:12:35;;;;;;;19.13;10.88;;;;;;;;;;4868267;29;20040;-85
2022/12/10 01:15:01;;;;;;;17.67;10.48;;;;;;;;;;4884328;29;20040;-85
2022/12/10 01:17:26;;;;;;;18.95;10.82;;;;;;;;;;4884117;29;20036;-85
2022/12/10 01:19:52;;;;;;;20.55;11.32;;;;;;;;;;4903400;23;20112;-82
2022/12/10 01:22:18;;;;;;;18.88;10.48;;;;;;;;;;4892107;29;20044;-81
2022/12/10 01:24:44;;;;;;;22.20;12.00;;;;;;;;;;4910110;29;20044;-82
2022/12/10 01:27:11;;;;;;;18.98;10.95;;;;;;;;;;4892953;29;20043;-81
2022/12/10 01:29:37;;;;;;;19.92;11.55;;;;;;;;;;4890860;29;20041;-81
2022/12/10 01:32:02;;;;;;;20.20;10.90;;;;;;;;;;4892399;29;20064;-80
2022/12/10 01:34:28;;;;;;;20.60;11.60;;;;;;;;;;4891397;29;20041;-80
2022/12/10 01:36:55;;;;;;;24.10;11.70;;;;;;;;;;4859608;29;20048;-81
2022/12/10 01:39:22;;;;;;;21.55;12.73;;;;;;;;;;4875473;29;20029;-81
2022/12/10 01:41:53;;;;;;;20.48;12.05;;;;;;;;;;4891860;29;20052;-82
2022/12/10 01:44:19;;;;;;;20.42;11.90;;;;;;;;;;4891450;29;20041;-82
2022/12/10 01:46:47;;;;;;;23.27;12.32;;;;;;;;;;4891629;29;20394;-82
2022/12/10 01:49:15;;;;;;;19.02;11.20;;;;;;;;;;4859435;29;20040;-81
2022/12/10 01:51:45;;;;;;;23.38;12.05;;;;;;;;;;4875185;29;20033;-81
2022/12/10 01:54:19;;;;;;;19.77;11.10;;;;;;;;;;4891912;29;20041;-82
2022/12/10 01:56:49;;;;;;;20.98;11.80;;;;;;;;;;4874673;29;20033;-81
2022/12/10 01:59:15;;;;;;;23.38;11.73;;;;;;;;;;4874366;29;20041;-82
2022/12/10 02:01:49;;;;;;;19.33;11.25;;;;;;;;;;4892026;29;20037;-81
2022/12/10 02:04:36;;;;;;;20.70;12.35;;;;;;;;;;4891050;29;20037;-82
2022/12/10 02:07:20;;;;;;;22.85;12.20;;;;;;;;;;4875460;29;20045;-83
2022/12/10 02:09:53;;;;;;;21.27;11.77;;;;;;;;;;4892380;29;20045;-80
2022/12/10 02:12:45;;;;;;;19.00;11.32;;;;;;;;;;4875131;29;20461;-82
2022/12/10 02:15:22;;;;;;;20.92;11.73;;;;;;;;;;4867507;29;20497;-81
2022/12/10 02:17:57;;;;;;;19.88;11.02;;;;;;;;;;4874970;29;20077;-82
2022/12/10 02:20:49;;;;;;;21.67;11.10;;;;;;;;;;4874196;29;20047;-82
2022/12/10 02:23:22;;;;;;;22.75;12.70;;;;;;;;;;4868484;29;20048;-81
2022/12/10 02:25:57;;;;;;;23.63;12.45;;;;;;;;;;4873502;29;20033;-82
2022/12/10 02:28:42;;;;;;;22.63;12.50;;;;;;;;;;4874528;29;20573;-81
2022/12/10 02:31:11;;;;;;;23.08;12.02;;;;;;;;;;4873484;29;20044;-81
2022/12/10 02:33:43;;;;;;;24.50;12.05;;;;;;;;;;4873922;29;20084;-81
2022/12/10 02:36:11;;;;;;;22.55;11.45;;;;;;;;;;4874027;29;20041;-82
2022/12/10 02:38:39;;;;;;;21.90;11.35;;;;;;;;;;4874164;29;20093;-81
2022/12/10 02:41:13;;;;;;;20.30;11.45;;;;;;;;;;4874478;29;20104;-81
2022/12/10 02:43:40;;;;;;;17.38;10.77;;;;;;;;;;4874309;29;20522;-81
2022/12/10 02:46:06;;;;;;;19.75;10.68;;;;;;;;;;4890509;29;20046;-81
2022/12/10 02:48:33;;;;;;;21.75;12.23;;;;;;;;;;4874058;29;20066;-82
2022/12/10 02:50:59;;;;;;;21.88;12.10;;;;;;;;;;4873574;29;20048;-82
2022/12/10 02:53:25;;;;;;;19.95;11.43;;;;;;;;;;4872627;29;20037;-81
2022/12/10 02:56:20;;;;;;;19.13;11.77;;;;;;;;;;4873009;29;20056;-82
2022/12/10 02:58:54;;;;;;;18.50;10.98;;;;;;;;;;4869980;29;20041;-82
2022/12/10 03:01:21;;;;;;;16.70;10.57;;;;;;;;;;4872143;29;20041;-81
2022/12/10 03:03:49;;;;;;;17.52;10.43;;;;;;;;;;4874837;29;20048;-80
2022/12/10 03:06:24;;;;;;;21.60;11.20;;;;;;;;;;4875065;29;20060;-80
2022/12/10 03:09:09;;;;;;;17.17;10.38;;;;;;;;;;4876295;29;20162;-80
2022/12/10 03:11:35;;;;;;;16.02;9.90;;;;;;;;;;4893012;29;20091;-81
2022/12/10 03:14:10;;;;;;;18.65;11.57;;;;;;;;;;4890435;29;20052;-80
2022/12/10 03:16:40;;;;;;;18.80;11.05;;;;;;;;;;4889921;29;20045;-82
2022/12/10 03:19:15;;;;;;;18.15;10.88;;;;;;;;;;4873199;29;20408;-81
2022/12/10 03:21:41;;;;;;;19.23;11.10;;;;;;;;;;4874089;29;20096;-81
2022/12/10 03:24:09;;;;;;;19.63;10.82;;;;;;;;;;4868368;29;20037;-81
2022/12/10 03:26:36;;;;;;;16.25;9.75;;;;;;;;;;4891690;29;20024;-81
2022/12/10 03:29:07;;;;;;;18.95;10.10;;;;;;;;;;4891241;29;20037;-81
2022/12/10 03:31:34;;;;;;;16.67;10.20;;;;;;;;;;4892048;29;20040;-81
2022/12/10 03:34:01;;;;;;;18.77;10.65;;;;;;;;;;4890950;29;20073;-82
2022/12/10 03:36:29;;;;;;;21.92;11.10;;;;;;;;;;4890787;29;20073;-81
2022/12/10 03:38:56;;;;;;;16.27;10.00;;;;;;;;;;4891724;29;20124;-81
2022/12/10 03:41:22;;;;;;;17.65;9.98;;;;;;;;;;4874037;29;20077;-81
2022/12/10 03:43:56;;;;;;;18.25;11.02;;;;;;;;;;4887071;29;20045;-83
2022/12/10 03:46:23;;;;;;;16.67;10.82;;;;;;;;;;4886829;29;20037;-82
2022/12/10 03:48:50;;;;;;;18.25;10.63;;;;;;;;;;4874373;29;20066;-81
2022/12/10 03:51:16;;;;;;;18.83;10.55;;;;;;;;;;4891091;29;20037;-81
2022/12/10 03:53:42;;;;;;;17.27;10.77;;;;;;;;;;4875052;29;20044;-82
2022/12/10 03:56:08;;;;;;;18.13;10.30;;;;;;;;;;4890127;29;20074;-82
2022/12/10 03:58:33;;;;;;;17.35;10.27;;;;;;;;;;4890341;29;20044;-81
2022/12/10 04:00:59;;;;;;;19.20;11.05;;;;;;;;;;4874144;29;20041;-81
2022/12/10 04:03:24;;;;;;;17.08;10.60;;;;;;;;;;4891512;29;20041;-82
2022/12/10 04:05:50;;;;;;;17.55;10.80;;;;;;;;;;4891018;29;20070;-81
2022/12/10 04:08:15;;;;;;;19.85;11.30;;;;;;;;;;4874768;29;20041;-82
2022/12/10 04:10:41;;;;;;;18.45;11.02;;;;;;;;;;4890860;29;20048;-82
2022/12/10 04:18:34;;;;;;;17.30;10.50;;;;;;;;;;4874805;29;20033;-82
2022/12/10 04:29:12;;;;;;;18.63;11.30;;;;;;;;;;4889405;29;20485;-81
2022/12/10 04:31:38;;;;;;;19.83;11.07;;;;;;;;;;4890452;29;20112;-81
2022/12/10 04:34:03;;;;;;;17.02;10.57;;;;;;;;;;4890544;29;20029;-82
2022/12/10 04:36:29;;;;;;;21.30;11.40;;;;;;;;;;4889149;29;20037;-82
2022/12/10 04:38:54;;;;;;;19.67;10.73;;;;;;;;;;4889450;29;20508;-81
2022/12/10 04:41:20;;;;;;;21.77;12.27;;;;;;;;;;4889041;29;20123;-81
2022/12/10 04:43:45;;;;;;;19.83;11.57;;;;;;;;;;4889554;29;20525;-82
2022/12/10 04:46:11;;;;;;;20.33;11.63;;;;;;;;;;4889240;29;20055;-82
2022/12/10 04:48:38;;;;;;;20.02;11.48;;;;;;;;;;4889989;29;20126;-81
2022/12/10 04:51:04;;;;;;;20.25;11.68;;;;;;;;;;4889069;29;20056;-82
2022/12/10 04:53:29;;;;;;;21.17;12.32;;;;;;;;;;4889623;29;20036;-80
2022/12/10 04:55:55;;;;;;;21.08;12.00;;;;;;;;;;4870794;29;20132;-82
2022/12/10 04:58:20;;;;;;;21.98;12.85;;;;;;;;;;4872560;29;20108;-82
2022/12/10 05:00:46;;;;;;;24.67;12.50;;;;;;;;;;4888778;29;20109;-82
2022/12/10 05:03:11;;;;;;;19.30;11.77;;;;;;;;;;4889762;29;20041;-81
2022/12/10 05:05:37;;;;;;;22.60;12.93;;;;;;;;;;4872621;29;20048;-83
2022/12/10 05:08:02;;;;;;;23.15;13.02;;;;;;;;;;4889168;29;20037;-82
2022/12/10 05:10:28;;;;;;;26.05;14.45;;;;;;;;;;4889937;29;20044;-82
2022/12/10 05:12:53;;;;;;;25.48;14.55;;;;;;;;;;4890068;29;20033;-82
2022/12/10 05:15:19;;;;;;;23.35;13.73;;;;;;;;;;4889643;29;20055;-82
2022/12/10 05:17:44;;;;;;;23.45;12.85;;;;;;;;;;4873100;29;20037;-81
2022/12/10 05:20:10;;;;;;;23.83;13.70;;;;;;;;;;4889410;29;20049;-81
2022/12/10 05:25:21;;;;;;;23.73;13.18;;;;;;;;;;4888529;29;20068;-82
2022/12/10 05:27:47;;;;;;;25.98;14.38;;;;;;;;;;4889153;29;20037;-82
2022/12/10 05:30:12;;;;;;;25.42;14.15;;;;;;;;;;4888448;29;20029;-81
2022/12/10 05:32:38;;;;;;;25.98;14.00;;;;;;;;;;4888743;29;20413;-81
2022/12/10 05:35:04;;;;;;;28.40;14.73;;;;;;;;;;4888142;29;20072;-81
2022/12/10 05:37:30;;;;;;;25.00;14.40;;;;;;;;;;4889314;29;20066;-80
2022/12/10 05:39:55;;;;;;;24.73;14.70;;;;;;;;;;4888406;29;20037;-81
2022/12/10 05:42:21;;;;;;;23.80;13.30;;;;;;;;;;4888691;29;20048;-81
2022/12/10 05:44:46;;;;;;;24.67;13.40;;;;;;;;;;4887809;29;20029;-82
2022/12/10 05:47:12;;;;;;;24.27;13.40;;;;;;;;;;4887961;29;20044;-81
2022/12/10 05:49:37;;;;;;;22.50;12.15;;;;;;;;;;4888190;29;20060;-82
2022/12/10 05:52:03;;;;;;;22.70;13.32;;;;;;;;;;4888374;29;20065;-82
2022/12/10 05:54:28;;;;;;;21.75;12.45;;;;;;;;;;4888659;29;20033;-82
2022/12/10 05:56:54;;;;;;;23.67;12.50;;;;;;;;;;4888431;29;20101;-81
2022/12/10 05:59:20;;;;;;;26.00;12.95;;;;;;;;;;4888770;29;20503;-83
2022/12/10 06:01:45;;;;;;;23.10;12.95;;;;;;;;;;4888120;29;20068;-82
2022/12/10 06:04:11;;;;;;;22.98;13.10;;;;;;;;;;4888350;29;20041;-81
2022/12/10 06:06:38;;;;;;;24.83;13.68;;;;;;;;;;4889251;29;20037;-82
2022/12/10 06:09:06;;;;;;;24.17;13.45;;;;;;;;;;4876342;29;20069;-81
2022/12/10 06:11:32;;;;;;;25.42;13.90;;;;;;;;;;4875520;29;20037;-81
2022/12/10 06:13:58;;;;;;;24.40;14.27;;;;;;;;;;4892231;29;20037;-81
2022/12/10 06:16:26;;;;;;;24.55;13.65;;;;;;;;;;4874976;29;20093;-82
2022/12/10 06:18:52;;;;;;;22.67;12.88;;;;;;;;;;4891961;29;20044;-82
2022/12/10 06:21:18;;;;;;;22.88;12.88;;;;;;;;;;4891906;29;20056;-82
2022/12/10 06:23:44;;;;;;;26.10;13.98;;;;;;;;;;4891329;29;20047;-82
2022/12/10 06:26:13;;;;;;;26.52;14.07;;;;;;;;;;4890969;29;20077;-82
2022/12/10 06:28:39;;;;;;;26.85;14.23;;;;;;;;;;4891059;29;20170;-82
2022/12/10 06:31:05;;;;;;;24.25;13.43;;;;;;;;;;4891847;29;20037;-82
2022/12/10 06:33:31;;;;;;;24.73;13.45;;;;;;;;;;4893183;29;20037;-81
2022/12/10 06:35:57;;;;;;;23.42;13.13;;;;;;;;;;4894487;29;20033;-82
2022/12/10 06:38:24;;;;;;;24.42;13.70;;;;;;;;;;4894923;29;20049;-81
2022/12/10 06:40:49;;;;;;;23.75;12.98;;;;;;;;;;4890664;29;20045;-83
2022/12/10 06:43:15;;;;;;;24.83;13.52;;;;;;;;;;4889241;29;20037;-82
2022/12/10 06:45:42;;;;;;;26.67;14.85;;;;;;;;;;4889918;29;20066;-82
2022/12/10 06:48:08;;;;;;;47.90;24.73;;;;;;;;;;4888995;29;20033;-81
2022/12/10 06:50:34;;;;;;;34.60;18.00;;;;;;;;;;4889682;29;20037;-81
2022/12/10 06:53:00;;;;;;;38.38;21.60;;;;;;;;;;4895123;29;20080;-81
2022/12/10 06:55:25;;;;;;;31.55;15.68;;;;;;;;;;4908200;29;20068;-82
2022/12/10 06:57:54;;;;;;;26.05;14.57;;;;;;;;;;4908014;29;20063;-82
2022/12/10 07:00:21;;;;;;;24.33;14.10;;;;;;;;;;4902651;29;20041;-81
2022/12/10 07:02:46;;;;;;;30.10;15.48;;;;;;;;;;4908284;29;20036;-80
2022/12/10 07:05:12;;;;;;;23.48;13.10;;;;;;;;;;4906594;29;20040;-80
2022/12/10 07:07:38;;;;;;;20.23;12.02;;;;;;;;;;4903534;29;20044;-81
2022/12/10 07:10:04;;;;;;;18.88;11.98;;;;;;;;;;4907666;29;20060;-80
2022/12/10 07:12:30;;;;;;;21.67;12.32;;;;;;;;;;4902640;29;20045;-82
2022/12/10 07:14:55;;;;;;;26.73;13.95;;;;;;;;;;4904216;29;20039;-80
2022/12/10 07:17:21;;;;;;;26.48;13.65;;;;;;;;;;4905487;29;20352;-80
2022/12/10 07:19:46;;;;;;;25.48;14.02;;;;;;;;;;4914388;23;20243;-81
2022/12/10 07:22:11;;;;;;;24.65;13.65;;;;;;;;;;4876018;29;20064;-82
2022/12/10 07:24:37;;;;;;;28.23;14.98;;;;;;;;;;4891491;29;20409;-80
2022/12/10 07:27:06;;;;;;;27.20;15.77;;;;;;;;;;4909818;29;20036;-83
2022/12/10 07:29:32;;;;;;;27.00;15.27;;;;;;;;;;4911286;29;20060;-82
2022/12/10 07:31:57;;;;;;;35.88;18.95;;;;;;;;;;4909699;29;20044;-83
2022/12/10 07:34:23;;;;;;;61.15;29.15;;;;;;;;;;4894354;29;20108;-81
2022/12/10 07:36:48;;;;;;;65.72;27.10;;;;;;;;;;4895065;29;20032;-82
2022/12/10 07:39:17;;;;;;;54.45;22.52;;;;;;;;;;4910830;29;20036;-82
2022/12/10 07:41:52;;;;;;;33.08;16.98;;;;;;;;;;4900315;29;20584;-82
2022/12/10 07:44:20;;;;;;;39.00;19.38;;;;;;;;;;4908696;29;20122;-82
2022/12/10 07:46:47;;;;;;;43.75;21.30;;;;;;;;;;4889151;29;20051;-84
2022/12/10 07:49:13;;;;;;;35.97;19.20;;;;;;;;;;4892508;29;20084;-83
2022/12/10 07:51:38;;;;;;;31.67;17.05;;;;;;;;;;4908793;29;20040;-82
2022/12/10 07:54:03;;;;;;;28.58;16.13;;;;;;;;;;4909888;29;20040;-82
2022/12/10 07:56:29;;;;;;;34.58;18.25;;;;;;;;;;4905433;29;20040;-80
2022/12/10 07:58:54;;;;;;;28.80;16.27;;;;;;;;;;4929215;29;20035;-82
2022/12/10 08:01:25;;;;;;;32.47;15.90;;;;;;;;;;4912370;29;20047;-82
2022/12/10 08:03:52;;;;;;;28.60;15.73;;;;;;;;;;4897149;29;20047;-82
2022/12/10 08:06:20;;;;;;;26.48;14.45;;;;;;;;;;4912333;29;20569;-82
2022/12/10 08:08:47;;;;;;;27.92;15.00;;;;;;;;;;4929122;29;20039;-82
2022/12/10 08:11:14;;;;;;;26.50;15.02;;;;;;;;;;4895413;29;20032;-82
2022/12/10 08:13:40;;;;;;;24.92;14.23;;;;;;;;;;4900700;29;20483;-82
2022/12/10 08:16:17;;;;;;;28.23;15.35;;;;;;;;;;4891237;29;20047;-80
2022/12/10 08:18:43;;;;;;;24.08;14.13;;;;;;;;;;4908956;29;20521;-82
2022/12/10 08:21:15;;;;;;;25.88;14.73;;;;;;;;;;4893014;29;20036;-82
2022/12/10 08:23:41;;;;;;;27.25;16.23;;;;;;;;;;4909941;29;20426;-82
2022/12/10 08:26:11;;;;;;;27.45;15.90;;;;;;;;;;4892843;29;20533;-82
2022/12/10 08:28:37;;;;;;;31.05;16.70;;;;;;;;;;4907968;29;20105;-82
2022/12/10 08:31:03;;;;;;;29.65;16.35;;;;;;;;;;4906662;29;20040;-81
2022/12/10 08:33:28;;;;;;;31.52;17.67;;;;;;;;;;4891104;29;20040;-81
2022/12/10 08:35:59;;;;;;;30.40;17.05;;;;;;;;;;4875162;29;20048;-82
2022/12/10 08:38:25;;;;;;;29.90;16.23;;;;;;;;;;4906495;29;20032;-82
2022/12/10 08:40:51;;;;;;;34.60;17.85;;;;;;;;;;4905499;29;20509;-82
2022/12/10 08:43:16;;;;;;;30.85;16.52;;;;;;;;;;4889354;29;20131;-83
2022/12/10 08:45:42;;;;;;;32.40;17.95;;;;;;;;;;4905020;29;20043;-82
2022/12/10 08:48:07;;;;;;;34.50;18.48;;;;;;;;;;4888949;29;20096;-80
2022/12/10 08:50:33;;;;;;;34.78;17.67;;;;;;;;;;4904200;29;20061;-82
2022/12/10 08:52:59;;;;;;;29.55;15.88;;;;;;;;;;4904090;29;20044;-81
2022/12/10 08:55:25;;;;;;;35.60;18.70;;;;;;;;;;4888489;29;20041;-83
2022/12/10 08:57:50;;;;;;;32.58;17.63;;;;;;;;;;4888784;29;20064;-80
2022/12/10 09:00:18;;;;;;;30.35;16.90;;;;;;;;;;4905356;29;20132;-83
2022/12/10 09:02:44;;;;;;;34.45;17.58;;;;;;;;;;4889663;29;20040;-82
2022/12/10 09:05:10;;;;;;;36.50;18.98;;;;;;;;;;4905237;29;20071;-80
2022/12/10 09:07:35;;;;;;;38.22;18.88;;;;;;;;;;4905307;29;20032;-82
2022/12/10 09:10:01;;;;;;;56.83;25.98;;;;;;;;;;4888219;29;20036;-78
2022/12/10 09:12:26;;;;;;;33.25;18.80;;;;;;;;;;4905820;29;20036;-81
2022/12/10 09:14:52;;;;;;;27.33;16.08;;;;;;;;;;4888435;29;20036;-80
2022/12/10 09:17:17;;;;;;;29.05;15.55;;;;;;;;;;4904736;29;20032;-81
2022/12/10 09:19:43;;;;;;;29.02;15.88;;;;;;;;;;4904819;29;20064;-77
2022/12/10 09:22:08;;;;;;;33.90;16.98;;;;;;;;;;4904796;29;20025;-80
2022/12/10 09:24:34;;;;;;;30.80;15.82;;;;;;;;;;4905204;29;20041;-81
2022/12/10 09:27:01;;;;;;;27.00;13.73;;;;;;;;;;4887835;29;20131;-81
2022/12/10 09:29:26;;;;;;;23.25;13.60;;;;;;;;;;4887220;29;20048;-79
2022/12/10 09:31:52;;;;;;;30.15;16.60;;;;;;;;;;4902724;29;20037;-81
2022/12/10 09:34:18;;;;;;;26.52;15.07;;;;;;;;;;4903544;29;20041;-81
2022/12/10 09:36:44;;;;;;;28.65;15.93;;;;;;;;;;4887726;29;20517;-79
2022/12/10 09:39:09;;;;;;;25.45;13.77;;;;;;;;;;4888301;29;20471;-80
2022/12/10 09:41:56;;;;;;;24.17;13.18;;;;;;;;;;4903929;29;20136;-81
2022/12/10 09:44:53;;;;;;;27.10;13.88;;;;;;;;;;4892873;29;20241;-80
2022/12/10 09:47:18;;;;;;;24.70;14.10;;;;;;;;;;4910539;29;20056;-81
2022/12/10 09:50:00;;;;;;;25.30;14.07;;;;;;;;;;4893746;29;20040;-78
2022/12/10 09:52:34;;;;;;;25.33;13.30;;;;;;;;;;4894458;29;20051;-81
2022/12/10 09:55:05;;;;;;;23.27;13.15;;;;;;;;;;4911632;29;20036;-81
2022/12/10 09:57:39;;;;;;;25.13;13.00;;;;;;;;;;4912138;29;20125;-82
2022/12/10 10:00:15;;;;;;;23.48;11.85;;;;;;;;;;4894867;29;20494;-82
2022/12/10 10:02:41;;;;;;;26.75;13.43;;;;;;;;;;4885667;29;20059;-82
2022/12/10 10:05:06;;;;;;;28.30;14.10;;;;;;;;;;4912574;29;20028;-83
2022/12/10 10:07:36;;;;;;;31.65;14.48;;;;;;;;;;4894397;29;20549;-82
2022/12/10 10:10:05;;;;;;;30.35;15.18;;;;;;;;;;4895717;29;20123;-83
2022/12/10 10:12:33;;;;;;;29.98;15.10;;;;;;;;;;4912700;29;20043;-83
2022/12/10 10:15:14;;;;;;;26.50;14.52;;;;;;;;;;4895289;29;20031;-83
2022/12/10 10:17:45;;;;;;;28.02;13.25;;;;;;;;;;4912225;29;20043;-82
2022/12/10 10:20:12;;;;;;;24.05;12.18;;;;;;;;;;4912872;29;20029;-83
2022/12/10 10:22:38;;;;;;;34.00;15.05;;;;;;;;;;4895177;29;20061;-84
2022/12/10 10:25:05;;;;;;;28.08;13.95;;;;;;;;;;4879382;29;20045;-81
2022/12/10 10:27:33;;;;;;;24.90;12.25;;;;;;;;;;4912711;29;20048;-83
2022/12/10 10:30:01;;;;;;;22.67;12.52;;;;;;;;;;4893763;29;20048;-82
2022/12/10 10:32:36;;;;;;;28.33;14.38;;;;;;;;;;4911761;29;20052;-81
2022/12/10 10:35:03;;;;;;;23.10;13.15;;;;;;;;;;4895251;29;20417;-82
2022/12/10 10:37:41;;;;;;;24.90;13.60;;;;;;;;;;4910161;29;20526;-83
2022/12/10 10:40:25;;;;;;;23.75;13.45;;;;;;;;;;4895423;29;20048;-82
2022/12/10 10:42:55;;;;;;;27.50;13.75;;;;;;;;;;4896043;29;20047;-82
2022/12/10 10:45:38;;;;;;;28.70;13.75;;;;;;;;;;4913436;29;20506;-83
2022/12/10 10:48:06;;;;;;;;;;;;;;;;;;4910232;29;20517;-83
2022/12/10 10:50:41;;;;;;;27.30;13.30;;;;;;;;;;4891908;29;19915;-83
2022/12/10 10:53:39;;;;;;;25.80;12.85;;;;;;;;;;4910364;29;20044;-83
2022/12/10 10:56:16;;;;;;;24.38;12.27;;;;;;;;;;4867385;29;20063;-81
2022/12/10 10:59:04;;;;;;;26.90;13.02;;;;;;;;;;4892821;29;20059;-80
2022/12/10 11:01:53;;;;;;;29.80;14.13;;;;;;;;;;4892129;29;20040;-81
2022/12/10 11:04:44;;;;;;;29.65;15.00;;;;;;;;;;4922624;29;20040;-82
2022/12/10 11:07:37;;;;;;;28.30;13.90;;;;;;;;;;4909126;29;20049;-83
2022/12/10 11:10:15;;;;;;;30.52;14.07;;;;;;;;;;4908733;29;20052;-81
2022/12/10 11:12:40;;;;;;;31.52;13.68;;;;;;;;;;4907955;29;20055;-81
2022/12/10 11:15:41;;;;;;;26.63;12.75;;;;;;;;;;4892176;29;20029;-82
2022/12/10 11:18:26;;;;;;;29.77;13.48;;;;;;;;;;4892006;29;20063;-81
2022/12/10 11:21:05;;;;;;;25.63;13.48;;;;;;;;;;4906647;29;20498;-83
2022/12/10 11:23:38;;;;;;;25.63;13.10;;;;;;;;;;4891454;29;20037;-82
2022/12/10 11:26:41;;;;;;;26.13;12.60;;;;;;;;;;4907450;29;20041;-83
2022/12/10 11:29:41;;;;;;;25.03;11.90;;;;;;;;;;4891068;29;20047;-80
2022/12/10 11:32:22;;;;;;;26.27;11.88;;;;;;;;;;4892626;29;20040;-81
2022/12/10 11:35:17;;;;;;;24.05;11.80;;;;;;;;;;4922054;29;20049;-81
2022/12/10 11:38:07;;;;;;;22.60;12.27;;;;;;;;;;4910135;29;20037;-81
2022/12/10 11:40:48;;;;;;;25.17;12.02;;;;;;;;;;4908049;29;20041;-81
2022/12/10 11:43:13;;;;;;;23.77;12.27;;;;;;;;;;4909303;29;20072;-81
2022/12/10 11:45:54;;;;;;;24.17;12.10;;;;;;;;;;4907734;29;20032;-82
2022/12/10 11:48:23;;;;;;;24.83;12.70;;;;;;;;;;4905731;29;20040;-81
2022/12/10 11:51:00;;;;;;;25.48;12.43;;;;;;;;;;4890024;29;20039;-80
2022/12/10 11:53:44;;;;;;;24.75;11.73;;;;;;;;;;4906432;29;20048;-82
2022/12/10 11:56:31;;;;;;;24.75;12.38;;;;;;;;;;4890078;29;20102;-82
2022/12/10 11:59:07;;;;;;;25.67;12.43;;;;;;;;;;4923956;29;20467;-82
2022/12/10 12:01:51;;;;;;;25.90;12.85;;;;;;;;;;4908159;29;20067;-81
2022/12/10 12:04:44;;;;;;;25.73;12.73;;;;;;;;;;4907555;29;20104;-81
2022/12/10 12:07:30;;;;;;;26.02;12.80;;;;;;;;;;4894716;29;20044;-81
2022/12/10 12:10:11;;;;;;;27.13;13.30;;;;;;;;;;4892374;29;20127;-81
2022/12/10 12:12:49;;;;;;;29.77;15.10;;;;;;;;;;4923700;29;20037;-82
2022/12/10 12:15:25;;;;;;;32.25;14.65;;;;;;;;;;4906407;29;20471;-82
2022/12/10 12:18:06;;;;;;;26.25;13.63;;;;;;;;;;4908803;29;20042;-82
2022/12/10 12:20:36;;;;;;;23.55;12.32;;;;;;;;;;4906676;29;20312;-81
2022/12/10 12:23:11;;;;;;;24.67;12.50;;;;;;;;;;4890743;29;20498;-82
2022/12/10 12:25:41;;;;;;;29.15;14.77;;;;;;;;;;4904958;29;20037;-82
2022/12/10 12:28:21;;;;;;;28.27;14.40;;;;;;;;;;4890174;29;20051;-82
2022/12/10 12:30:51;;;;;;;28.98;15.18;;;;;;;;;;4888659;29;20123;-81
2022/12/10 12:33:19;;;;;;;29.60;15.05;;;;;;;;;;4907070;29;20036;-83
2022/12/10 12:35:54;;;;;;;34.63;16.73;;;;;;;;;;4921476;29;20048;-82
2022/12/10 12:38:26;;;;;;;31.80;15.80;;;;;;;;;;4921406;29;20044;-82
2022/12/10 12:41:03;;;;;;;31.17;17.30;;;;;;;;;;4889761;29;20037;-80
2022/12/10 12:43:42;;;;;;;33.65;17.48;;;;;;;;;;4890133;29;20505;-80
2022/12/10 12:46:26;;;;;;;41.13;19.85;;;;;;;;;;4906613;29;20036;-81
2022/12/10 12:49:14;;;;;;;36.22;18.23;;;;;;;;;;4907597;29;20047;-81
2022/12/10 12:51:45;;;;;;;41.70;19.15;;;;;;;;;;4905664;29;20028;-81
2022/12/10 12:54:11;;;;;;;39.75;20.00;;;;;;;;;;4905903;29;20044;-82
2022/12/10 12:57:00;;;;;;;38.42;20.60;;;;;;;;;;4904698;29;20409;-80
2022/12/10 12:59:47;;;;;;;38.75;20.63;;;;;;;;;;4878276;29;20059;-81
2022/12/10 13:02:26;;;;;;;28.75;15.73;;;;;;;;;;4889639;29;20420;-82
2022/12/10 13:04:52;;;;;;;27.42;14.43;;;;;;;;;;4905706;29;20044;-80
2022/12/10 13:07:18;;;;;;;32.80;16.52;;;;;;;;;;4889177;29;20056;-81
2022/12/10 13:09:51;;;;;;;27.70;13.32;;;;;;;;;;4905942;29;20054;-82
2022/12/10 13:12:26;;;;;;;27.83;14.45;;;;;;;;;;4906044;29;20032;-80
2022/12/10 13:15:00;;;;;;;24.35;13.55;;;;;;;;;;4888350;29;20032;-81
2022/12/10 13:17:28;;;;;;;30.65;15.75;;;;;;;;;;4904277;29;20052;-82
2022/12/10 13:20:33;;;;;;;46.53;21.30;;;;;;;;;;4921298;29;20064;-82
2022/12/10 13:23:30;;;;;;;48.45;22.38;;;;;;;;;;4939181;23;20068;-87
2022/12/10 13:26:04;;;;;;;41.38;20.73;;;;;;;;;;4919075;29;20387;-88
2022/12/10 13:29:12;;;;;;;33.38;16.50;;;;;;;;;;4920049;29;20032;-86
2022/12/10 13:32:08;;;;;;;33.92;15.85;;;;;;;;;;4895665;29;20521;-87
2022/12/10 13:35:38;;;;;;;30.77;15.65;;;;;;;;;;4899574;29;20064;-86
2022/12/10 13:38:23;;;;;;;32.45;15.82;;;;;;;;;;4883444;29;20045;-87
2022/12/10 13:44:37;;;;;;;41.83;18.77;;;;;;;;;;4886098;29;20051;-87
2022/12/10 13:47:10;;;;;;;53.00;22.60;;;;;;;;;;4902359;29;20047;-86
2022/12/10 13:50:06;;;;;;;54.92;21.15;;;;;;;;;;4886118;29;20044;-87
2022/12/10 13:52:44;;;;;;;80.07;28.35;;;;;;;;;;4859383;29;20048;-87
2022/12/10 13:55:57;;;;;;;96.60;30.30;;;;;;;;;;4906022;29;20075;-86
2022/12/10 13:58:59;;;;;;;81.35;28.70;;;;;;;;;;4887710;29;20068;-86
2022/12/10 14:01:42;;;;;;;50.30;19.92;;;;;;;;;;4882319;29;20032;-85
2022/12/10 14:04:32;;;;;;;40.23;17.97;;;;;;;;;;4882250;29;20112;-85
2022/12/10 14:06:58;;;;;;;67.93;24.38;;;;;;;;;;4898015;29;20061;-88
2022/12/10 14:09:33;;;;;;;44.45;19.27;;;;;;;;;;4898594;29;20060;-86
2022/12/10 14:12:13;;;;;;;28.67;14.10;;;;;;;;;;4897591;29;20116;-85
2022/12/10 14:15:01;;;;;;;30.48;13.77;;;;;;;;;;4879758;29;20068;-86
2022/12/10 14:17:38;;;;;;;27.20;13.25;;;;;;;;;;4889315;29;20495;-86
2022/12/10 14:20:07;;;;;;;26.65;13.27;;;;;;;;;;4882561;29;20044;-85
2022/12/10 14:22:45;;;;;;;26.98;14.10;;;;;;;;;;4882591;29;20038;-88
2022/12/10 14:25:22;;;;;;;28.13;14.18;;;;;;;;;;4866769;29;20127;-86
2022/12/10 14:27:50;;;;;;;27.45;13.85;;;;;;;;;;4867266;29;20069;-86
2022/12/10 14:30:20;;;;;;;28.38;14.60;;;;;;;;;;4903085;29;20072;-86
2022/12/10 14:32:46;;;;;;;26.17;12.73;;;;;;;;;;4903472;29;20071;-88
2022/12/10 14:35:19;;;;;;;26.15;14.27;;;;;;;;;;4904006;29;20029;-88
2022/12/10 14:37:47;;;;;;;26.58;13.35;;;;;;;;;;4909795;29;20044;-88
2022/12/10 14:40:25;;;;;;;27.60;14.48;;;;;;;;;;4906574;29;20160;-88
2022/12/10 14:43:04;;;;;;;29.35;14.25;;;;;;;;;;4901803;29;20055;-87
2022/12/10 14:45:53;;;;;;;28.73;14.45;;;;;;;;;;4902004;29;20099;-87
2022/12/10 14:48:19;;;;;;;24.58;13.48;;;;;;;;;;4902712;29;20037;-86
2022/12/10 14:50:46;;;;;;;31.77;15.25;;;;;;;;;;4901765;29;20037;-87
2022/12/10 14:53:18;;;;;;;25.83;13.43;;;;;;;;;;4902549;29;20040;-86
2022/12/10 14:55:47;;;;;;;23.23;12.30;;;;;;;;;;4903890;29;20036;-86
2022/12/10 14:58:28;;;;;;;23.65;12.35;;;;;;;;;;4894156;29;20293;-85
2022/12/10 15:00:53;;;;;;;24.58;12.27;;;;;;;;;;4903037;29;20079;-87
2022/12/10 15:03:47;;;;;;;22.60;11.77;;;;;;;;;;4885315;29;20021;-86